Time;durP1;ratioP1;P1;durP2;ratioP2;P2;SDS_P1;SDS_P2;PMS_P1;PMS_P2;Temp;Humidity;BMP_temperature;BMP_pressure;BME280_temperature;BME280_humidity;BME280_pressure;Samples;Min_cycle;Max_cycle;Signal;HPM_P1;HPM_P2
2022/08/07 00:01:17;;;;;;;0.10;0.10;;;16.90;99.90;;;17.18;67.72;100602.84;4953299;28;20573;-65
2022/08/07 00:04:06;;;;;;;0.10;0.10;;;16.90;99.90;;;17.20;68.77;100609.94;4943200;28;20244;-67
2022/08/07 00:06:38;;;;;;;0.10;0.10;;;16.90;99.90;;;17.19;68.36;100616.19;4932482;28;20239;-68
2022/08/07 00:09:20;;;;;;;0.10;0.10;;;16.80;99.90;;;17.19;69.18;100624.19;4938065;28;20220;-65
2022/08/07 00:11:50;;;;;;;0.20;0.20;;;;;;;17.03;68.62;100614.66;4937074;28;20252;-66
2022/08/07 00:14:29;;;;;;;0.20;0.20;;;16.80;99.90;;;17.16;69.03;100636.72;4931632;28;20205;-65
2022/08/07 00:17:00;;;;;;;0.20;0.20;;;16.80;99.90;;;17.04;69.11;100631.56;4919626;28;20205;-68
2022/08/07 00:19:31;;;;;;;0.20;0.20;;;16.70;99.90;;;17.02;69.07;100634.25;4961848;28;20223;-65
2022/08/07 00:22:19;;;;;;;0.13;0.13;;;;;;;16.98;69.45;100634.31;4965511;28;20275;-65
2022/08/07 00:25:05;;;;;;;0.30;0.30;;;16.70;99.90;;;16.99;69.33;100638.75;4931902;28;20252;-67
2022/08/07 00:27:34;;;;;;;0.40;0.40;;;;;;;17.11;69.58;100659.97;4964238;28;20220;-69
2022/08/07 00:30:21;;;;;;;0.40;0.40;;;;;;;16.90;69.64;100643.31;4936619;28;20213;-65
2022/08/07 00:32:59;;;;;;;0.40;0.40;;;16.60;99.90;;;16.98;69.64;100653.91;4922784;28;20236;-68
2022/08/07 00:35:29;;;;;;;0.40;0.40;;;;;;;16.92;69.82;100660.22;4945015;28;20225;-68
2022/08/07 00:37:58;;;;;;;0.40;0.40;;;16.60;99.90;;;16.90;69.77;100666.44;4926932;28;20201;-67
2022/08/07 00:40:28;;;;;;;0.30;0.30;;;16.60;99.90;;;16.85;69.97;100670.97;4947216;28;20220;-68
2022/08/07 00:43:12;;;;;;;0.30;0.30;;;16.40;99.90;;;16.80;70.16;100657.66;4918919;28;20216;-65
2022/08/07 00:46:01;;;;;;;0.25;0.25;;;16.50;99.90;;;16.84;69.91;100667.41;4962047;28;20228;-64
2022/08/07 00:48:30;;;;;;;0.30;0.30;;;16.30;99.90;;;16.77;69.60;100664.84;4934872;28;20201;-66
2022/08/07 00:51:09;;;;;;;0.30;0.30;;;;;;;16.83;70.46;100676.31;4916600;28;20201;-68
2022/08/07 00:53:37;;;;;;;0.20;0.20;;;;;;;16.80;70.18;100681.72;4926630;28;20205;-65
2022/08/07 00:56:22;;;;;;;0.30;0.30;;;16.50;99.90;;;16.75;70.18;100682.66;4931978;28;20220;-65
2022/08/07 00:58:58;;;;;;;0.30;0.30;;;;;;;16.73;70.38;100682.69;4905106;28;20213;-69
2022/08/07 01:01:26;;;;;;;0.30;0.30;;;;;;;16.83;70.34;100700.38;4918486;28;20205;-66
2022/08/07 01:03:55;;;;;;;0.20;0.20;;;;;;;16.72;70.11;100698.72;4950033;28;20205;-65
2022/08/07 01:06:28;;;;;;;0.22;0.22;;;16.40;99.90;;;16.68;70.57;100697.88;4914870;28;20225;-67
2022/08/07 01:08:58;;;;;;;0.30;0.30;;;16.30;99.90;;;16.58;70.69;100689.06;4929301;28;20205;-65
2022/08/07 01:11:32;;;;;;;0.30;0.30;;;16.30;99.90;;;16.59;70.72;100698.84;4914677;28;20233;-67
2022/08/07 01:14:22;;;;;;;0.30;0.30;;;16.30;99.90;;;16.69;71.42;100717.47;4919017;28;20205;-69
2022/08/07 01:16:57;;;;;;;0.10;0.10;;;;;;;16.52;70.93;100706.94;4930456;28;20234;-69
2022/08/07 01:19:30;;;;;;;0.40;0.40;;;16.20;99.90;;;16.54;71.13;100716.69;4916409;28;20205;-66
2022/08/07 01:22:01;;;;;;;0.20;0.20;;;;;;;16.41;71.53;100707.03;4932250;28;20256;-69
2022/08/07 01:24:35;;;;;;;0.40;0.40;;;;;;;16.48;71.20;100718.53;4896600;28;20576;-69
2022/08/07 01:27:05;;;;;;;0.30;0.30;;;;;;;16.55;71.30;100745.16;4900832;28;20221;-69
2022/08/07 01:29:54;;;;;;;0.30;0.30;;;;;;;16.47;71.40;100736.34;4929901;28;20228;-68
2022/08/07 01:32:22;;;;;;;0.20;0.20;;;;;;;16.32;71.31;100725.81;4940919;28;20236;-67
2022/08/07 01:34:53;;;;;;;0.25;0.25;;;;;;;16.37;71.66;100740.00;4924267;28;20239;-65
2022/08/07 01:37:22;;;;;;;0.20;0.20;;;;;;;16.43;71.67;100745.28;4918774;28;20205;-68
2022/08/07 01:39:57;;;;;;;0.10;0.10;;;15.90;99.90;;;16.38;71.77;100752.47;4920229;28;20205;-67
2022/08/07 01:42:34;;;;;;;0.10;0.10;;;16.00;99.90;;;16.26;71.79;100745.44;4932345;28;20201;-69
2022/08/07 01:45:09;;;;;;;0.10;0.10;;;15.80;99.90;;;16.21;72.35;100755.28;4918010;28;20217;-65
2022/08/07 01:47:49;;;;;;;0.20;0.20;;;;;;;16.30;72.25;100767.66;4923900;28;20197;-64
2022/08/07 01:50:38;;;;;;;0.13;0.13;;;15.90;99.90;;;16.21;72.20;100763.28;4908944;28;20231;-66
2022/08/07 01:53:11;;;;;;;0.10;0.10;;;;;;;16.24;72.37;100776.59;4958408;28;20217;-69
2022/08/07 01:56:03;;;;;;;0.10;0.10;;;15.90;99.90;;;16.12;72.63;100771.38;4944011;28;20225;-68
2022/08/07 01:58:51;;;;;;;0.10;0.10;;;16.10;99.90;;;16.10;72.54;100761.63;4930861;28;20225;-64
2022/08/07 02:01:27;;;;;;;0.20;0.20;;;15.90;99.90;;;16.09;72.53;100771.41;4934427;28;20213;-65
2022/08/07 02:04:24;;;;;;;0.25;0.25;;;15.80;99.90;;;16.00;72.84;100769.69;4926157;28;20224;-65
2022/08/07 02:06:58;;;;;;;0.38;0.38;;;15.70;99.90;;;16.10;73.35;100796.28;4951072;28;20682;-66
2022/08/07 02:09:28;;;;;;;0.10;0.10;;;15.80;99.90;;;16.01;73.05;100786.56;4936651;28;20208;-68
2022/08/07 02:12:19;;;;;;;0.10;0.10;;;15.70;99.90;;;15.90;73.07;100781.31;4937924;28;20229;-68
2022/08/07 02:15:00;;;;;;;0.10;0.10;;;15.70;99.90;;;15.90;73.59;100785.78;4934350;28;20236;-65
2022/08/07 02:17:39;;;;;;;0.10;0.10;;;15.70;99.90;;;15.99;73.80;100801.72;4966670;28;20208;-66
2022/08/07 02:20:08;;;;;;;0.30;0.30;;;15.70;99.90;;;15.94;73.58;100801.75;4951044;28;20217;-68
2022/08/07 02:22:48;;;;;;;0.30;0.30;;;15.70;99.90;;;15.94;74.10;100806.19;4927878;28;20220;-68
2022/08/07 02:25:24;;;;;;;0.30;0.30;;;15.70;99.90;;;15.91;73.66;100803.53;4942622;28;20241;-65
2022/08/07 02:28:16;;;;;;;0.57;0.57;;;15.60;99.90;;;15.86;74.05;100814.25;4947819;28;20228;-69
2022/08/07 02:30:56;;;;;;;0.20;0.20;;;15.60;99.90;;;15.80;74.54;100800.06;4933433;28;20205;-65
2022/08/07 02:33:26;;;;;;;0.10;0.10;;;;;;;15.78;74.36;100808.06;4953882;28;20237;-65
2022/08/07 02:36:16;;;;;;;0.20;0.20;;;;;;;15.64;74.94;100799.28;4925260;28;20236;-68
2022/08/07 02:39:06;;;;;;;0.20;0.20;;;15.50;99.90;;;15.66;74.76;100810.81;4936837;28;20209;-65
2022/08/07 02:41:48;;;;;;;0.20;0.20;;;15.50;99.90;;;15.57;74.96;100803.72;4936541;28;20216;-65
2022/08/07 02:44:24;;;;;;;0.20;0.20;;;15.50;99.90;;;15.46;75.48;100810.84;4920785;28;20213;-65
2022/08/07 02:46:57;;;;;;;0.10;0.10;;;15.40;99.90;;;15.48;75.74;100814.41;4936844;28;20682;-67
2022/08/07 02:49:29;;;;;;;0.10;0.10;;;;;;;15.40;76.46;100820.66;4919834;28;20216;-64
2022/08/07 02:52:40;;;;;;;0.20;0.20;;;15.30;99.90;;;15.28;76.44;100822.50;4950264;28;20251;-67
2022/08/07 02:55:21;;;;;;;0.20;0.20;;;15.30;99.90;;;15.33;76.46;100831.34;4958149;28;20244;-66
2022/08/07 02:58:03;;;;;;;0.30;0.30;;;15.20;99.90;;;15.26;76.84;100839.38;4941522;28;20668;-68
2022/08/07 03:00:34;;;;;;;0.20;0.20;;;15.20;99.90;;;15.25;76.54;100837.59;4931728;28;20224;-68
2022/08/07 03:03:08;;;;;;;0.30;0.30;;;15.20;99.90;;;15.17;76.80;100842.97;4930703;28;20217;-65
2022/08/07 03:05:45;;;;;;;0.20;0.20;;;15.10;99.90;;;15.15;77.03;100843.84;4963909;28;20232;-66
2022/08/07 03:08:16;;;;;;;0.30;0.30;;;15.00;99.90;;;15.06;77.16;100836.78;4932303;28;20221;-67
2022/08/07 03:10:56;;;;;;;0.20;0.20;;;16.60;99.90;;;15.14;77.48;100853.63;4900215;28;20799;-67
2022/08/07 03:13:31;;;;;;;0.10;0.10;;;;;;;15.09;77.12;100863.41;4962401;28;20527;-65
2022/08/07 03:16:17;;;;;;;0.20;0.20;;;;;;;15.01;77.35;100865.19;4934565;28;20242;-66
2022/08/07 03:18:55;;;;;;;0.30;0.30;;;;;;;14.96;77.37;100859.88;4929772;28;20216;-66
2022/08/07 03:21:25;;;;;;;0.10;0.10;;;14.80;99.90;;;14.87;77.85;100861.69;4911861;28;20205;-66
2022/08/07 03:23:56;;;;;;;0.20;0.20;;;14.90;99.90;;;14.83;78.15;100871.44;4947681;28;20201;-64
2022/08/07 03:26:45;;;;;;;0.20;0.20;;;14.80;99.90;;;14.77;78.59;100874.13;4950664;28;20212;-64
2022/08/07 03:29:49;;;;;;;0.20;0.20;;;14.60;99.90;;;14.76;78.76;100875.00;4937297;28;20202;-68
2022/08/07 03:32:33;;;;;;;0.20;0.20;;;14.30;99.90;;;14.65;78.72;100874.13;4933457;28;20216;-65
2022/08/07 03:35:07;;;;;;;0.20;0.20;;;14.80;99.90;;;14.63;78.33;100873.25;4918894;28;20234;-65
2022/08/07 03:37:57;;;;;;;0.25;0.25;;;14.50;99.90;;;14.75;78.88;100899.84;4935755;28;20202;-64
2022/08/07 03:40:29;;;;;;;0.30;0.30;;;;;;;14.63;79.14;100899.88;4919652;28;20209;-65
2022/08/07 03:43:09;;;;;;;0.20;0.20;;;;;;;14.67;78.79;100915.84;4949043;28;20205;-64
2022/08/07 03:45:50;;;;;;;0.20;0.20;;;14.60;99.90;;;14.67;79.05;100921.16;4931206;28;20224;-68
2022/08/07 03:48:24;;;;;;;0.20;0.20;;;;;;;14.70;78.83;100930.91;4933543;28;20225;-66
2022/08/07 03:50:57;;;;;;;0.20;0.20;;;;;;;14.68;78.80;100936.25;4973223;28;20213;-64
2022/08/07 03:53:34;;;;;;;0.20;0.20;;;14.50;99.90;;;14.55;79.57;100953.09;4943255;28;20225;-65
2022/08/07 03:56:24;;;;;;;0.15;0.15;;;14.40;99.90;;;14.61;79.25;100949.56;4957826;28;20225;-68
2022/08/07 03:59:05;;;;;;;0.10;0.10;;;14.40;99.90;;;14.48;79.11;100943.31;4936709;28;20202;-66
2022/08/07 04:01:44;;;;;;;0.10;0.10;;;14.40;99.90;;;14.44;79.21;100945.97;4935161;28;20232;-67
2022/08/07 04:04:16;;;;;;;0.20;0.20;;;14.40;99.90;;;14.62;79.48;100968.19;4966193;28;20217;-67
2022/08/07 04:06:52;;;;;;;0.10;0.10;;;;;;;14.42;79.71;100961.94;4905416;28;20209;-64
2022/08/07 04:09:23;;;;;;;0.10;0.10;;;;;;;14.60;79.60;100983.28;4940060;28;20206;-64
2022/08/07 04:11:56;;;;;;;0.20;0.20;;;;;;;14.53;79.90;100981.47;4937584;28;20209;-67
2022/08/07 04:14:46;;;;;;;0.10;0.10;;;;;;;14.30;79.72;100965.44;4930364;28;20240;-65
2022/08/07 04:17:18;;;;;;;0.20;0.20;;;;;;;14.32;79.76;100979.63;4900710;28;20213;-64
2022/08/07 04:19:54;;;;;;;0.10;0.10;;;;;;;14.55;79.71;101009.00;4919819;28;20224;-64
2022/08/07 04:22:27;;;;;;;0.10;0.10;;;;;;;14.44;79.81;101012.50;4930046;28;20209;-65
2022/08/07 04:25:03;;;;;;;0.20;0.20;;;;;;;14.41;80.17;101002.72;4927282;28;20618;-65
2022/08/07 04:27:41;;;;;;;0.20;0.20;;;;;;;14.39;79.68;101004.47;4896438;28;20214;-65
2022/08/07 04:30:20;;;;;;;0.20;0.20;;;;;;;14.40;80.01;101006.25;4953159;28;20221;-65
2022/08/07 04:33:16;;;;;;;0.30;0.30;;;;;;;14.48;80.06;101028.50;4954386;28;20225;-65
2022/08/07 04:35:48;;;;;;;0.20;0.20;;;;;;;14.33;80.24;101028.41;4915525;28;20232;-66
2022/08/07 04:38:24;;;;;;;0.20;0.20;;;14.30;99.90;;;14.44;80.03;101032.03;4952752;28;20209;-65
2022/08/07 04:40:53;;;;;;;0.20;0.20;;;;;;;14.44;80.31;101041.78;4928975;28;20205;-64
2022/08/07 04:43:45;;;;;;;0.20;0.20;;;;;;;14.60;80.05;101072.88;4960288;28;20219;-68
2022/08/07 04:46:46;;;;;;;0.20;0.20;;;14.20;99.90;;;14.60;79.83;101075.53;4925691;28;20232;-64
2022/08/07 04:49:51;;;;;;;0.20;0.20;;;14.30;99.90;;;14.39;80.13;101065.69;4922829;28;20217;-64
2022/08/07 04:52:58;;;;;;;0.10;0.10;;;14.50;99.90;;;14.40;80.03;101063.03;4948035;28;20208;-65
2022/08/07 04:55:50;;;;;;;0.20;0.20;;;14.30;99.90;;;14.50;80.02;101085.28;4925210;28;20239;-68
2022/08/07 04:59:20;;;;;;;0.10;0.10;;;14.20;99.90;;;14.50;80.00;101081.72;4935175;28;20212;-66
2022/08/07 05:02:43;;;;;;;0.20;0.20;;;14.40;99.90;;;14.59;79.75;101092.41;4967067;28;20213;-66
2022/08/07 05:05:40;;;;;;;0.25;0.25;;;14.30;99.90;;;14.62;79.68;101097.72;4930227;28;20233;-65
2022/08/07 05:08:47;;;;;;;0.10;0.10;;;14.30;99.90;;;14.68;79.92;101117.28;4940830;28;20212;-65
2022/08/07 05:11:42;;;;;;;0.20;0.20;;;14.40;99.90;;;14.80;79.17;101124.41;4923032;28;20204;-68
2022/08/07 05:14:46;;;;;;;0.30;0.30;;;14.40;99.90;;;14.79;79.70;101127.06;4933637;28;20224;-68
2022/08/07 05:17:31;;;;;;;0.20;0.20;;;;;;;14.95;79.28;101150.19;4947407;28;20196;-68
2022/08/07 05:20:26;;;;;;;0.10;0.10;;;14.60;99.90;;;14.99;78.99;101150.19;4904199;28;20243;-67
2022/08/07 05:23:06;;;;;;;0.30;0.30;;;14.60;99.90;;;15.02;78.64;101155.53;4934028;28;20216;-65
2022/08/07 05:25:47;;;;;;;0.30;0.30;;;14.70;99.90;;;15.10;79.05;101171.53;4922349;28;20235;-68
2022/08/07 05:28:37;;;;;;;0.30;0.30;;;14.70;99.90;;;15.15;78.67;101177.75;4939041;28;20237;-64
2022/08/07 05:31:16;;;;;;;0.30;0.30;;;14.30;99.90;;;15.24;78.30;101180.44;4921183;28;20213;-64
2022/08/07 05:33:48;;;;;;;0.20;0.20;;;14.90;99.90;;;15.31;77.88;101184.00;4927064;29;20229;-65
2022/08/07 05:36:37;;;;;;;0.30;0.30;;;15.00;99.90;;;15.41;77.69;101187.56;4926377;28;20240;-66
2022/08/07 05:39:16;;;;;;;0.20;0.20;;;15.00;99.90;;;15.46;77.44;101191.13;4962446;28;20205;-66
2022/08/07 05:42:06;;;;;;;0.20;0.20;;;;;;;15.56;77.34;101190.25;4936485;28;20210;-65
2022/08/07 05:44:42;;;;;;;0.22;0.22;;;;;;;15.66;77.42;101213.44;4901083;28;20601;-66
2022/08/07 05:47:31;;;;;;;0.20;0.20;;;15.20;99.90;;;15.69;76.92;101216.09;4919535;28;20221;-68
2022/08/07 05:50:20;;;;;;;0.13;0.13;;;15.10;99.90;;;15.78;77.26;101216.09;4938006;28;20217;-67
2022/08/07 05:52:49;;;;;;;0.10;0.10;;;;;;;15.89;77.47;101232.13;4956682;28;20213;-66
2022/08/07 05:55:17;;;;;;;0.20;0.20;;;;;;;16.03;77.02;101227.66;4924926;28;20238;-65
2022/08/07 05:57:49;;;;;;;0.20;0.20;;;15.60;99.90;;;16.10;76.52;101226.75;4914893;28;20209;-68
2022/08/07 06:00:18;;;;;;;0.30;0.30;;;15.70;99.90;;;16.11;76.27;101231.22;4929940;28;20675;-67
2022/08/07 06:02:56;;;;;;;0.10;0.10;;;15.70;99.90;;;16.15;76.91;101249.00;4904840;28;20213;-64
2022/08/07 06:05:30;;;;;;;0.10;0.10;;;;;;;16.26;76.12;101244.53;4937475;28;20217;-68
2022/08/07 06:08:05;;;;;;;0.20;0.20;;;;;;;16.28;76.18;101239.19;4964150;28;20211;-68
2022/08/07 06:10:53;;;;;;;0.10;0.10;;;;;;;16.41;75.87;101240.94;4924084;28;20217;-65
2022/08/07 06:13:24;;;;;;;0.20;0.20;;;;;;;16.60;75.65;101256.03;4958157;28;20210;-66
2022/08/07 06:16:15;;;;;;;0.10;0.10;;;16.20;99.90;;;16.69;74.83;101243.59;4926459;28;20242;-66
2022/08/07 06:18:45;;;;;;;0.10;0.10;;;16.20;99.90;;;16.79;75.38;101251.56;4957587;28;20217;-69
2022/08/07 06:21:25;;;;;;;0.10;0.10;;;;;;;16.93;74.84;101256.88;4934987;28;20201;-65
2022/08/07 06:24:13;;;;;;;0.10;0.10;;;;;;;16.94;74.25;101237.28;4926476;28;20228;-66
2022/08/07 06:27:02;;;;;;;0.10;0.10;;;17.00;99.90;;;17.15;74.50;101250.56;4918435;28;20216;-65
2022/08/07 06:29:34;;;;;;;0.17;0.17;;;;;;;17.27;73.93;101252.28;4933510;28;20548;-66
2022/08/07 06:32:07;;;;;;;0.10;0.10;;;;;;;17.23;73.24;101226.44;4935167;28;21285;-65
2022/08/07 06:34:35;;;;;;;0.10;0.10;;;;;;;17.34;73.12;101227.28;4935065;28;20237;-65
2022/08/07 06:37:08;;;;;;;0.10;0.10;;;;;;;17.48;73.12;101224.50;4946553;28;20213;-68
2022/08/07 06:39:39;;;;;;;0.10;0.10;;;17.20;99.90;;;17.74;72.96;101241.31;4897433;28;20209;-64
2022/08/07 06:42:36;;;;;;;0.10;0.10;;;17.30;99.90;;;17.94;72.68;101234.91;4931575;28;20217;-69
2022/08/07 06:45:24;;;;;;;0.10;0.10;;;17.50;99.90;;;17.92;72.27;101230.44;4936939;28;20221;-66
2022/08/07 06:48:01;;;;;;;0.10;0.10;;;17.60;99.90;;;18.09;71.09;101208.88;4954992;28;20221;-65
2022/08/07 06:50:39;;;;;;;0.15;0.15;;;18.00;99.90;;;18.22;72.11;101215.94;4954344;28;20204;-64
2022/08/07 06:53:19;;;;;;;0.10;0.10;;;17.70;99.90;;;18.14;70.68;101177.59;4933865;28;20205;-68
2022/08/07 06:56:13;;;;;;;0.10;0.10;;;17.80;99.90;;;18.26;71.33;101183.75;4948902;28;20244;-64
2022/08/07 06:58:47;;;;;;;0.10;0.10;;;17.90;99.90;;;18.54;70.60;101188.78;4951512;28;20227;-68
2022/08/07 07:01:40;;;;;;;0.10;0.10;;;18.10;99.90;;;18.61;69.41;101162.84;4950418;28;20695;-67
2022/08/07 07:04:19;;;;;;;0.10;0.10;;;18.20;99.90;;;18.65;69.40;101153.88;4936519;28;20220;-68
2022/08/07 07:07:06;;;;;;;0.10;0.10;;;18.30;99.90;;;18.80;69.24;101156.34;4936870;28;20244;-65
2022/08/07 07:09:49;;;;;;;0.10;0.10;;;18.40;99.90;;;18.81;68.52;101130.44;4942140;28;20217;-66
2022/08/07 07:12:47;;;;;;;0.10;0.10;;;18.60;99.90;;;19.21;68.66;101145.94;4931431;28;20228;-67
2022/08/07 07:15:27;;;;;;;0.10;0.10;;;18.70;99.90;;;19.07;68.42;101117.56;4947542;28;20229;-64
2022/08/07 07:18:22;;;;;;;0.00;0.00;;;18.80;99.90;;;19.31;67.82;101118.06;4975512;28;20224;-68
2022/08/07 07:21:25;;;;;;;0.10;0.10;;;19.00;99.90;;;19.50;68.51;101127.59;4941027;28;20208;-68
2022/08/07 07:24:09;;;;;;;0.10;0.10;;;19.20;99.90;;;19.68;67.46;101113.03;4928280;28;20579;-67
2022/08/07 07:26:43;;;;;;;0.10;0.10;;;19.20;99.90;;;19.67;67.45;101101.44;4960906;28;20225;-68
2022/08/07 07:29:25;;;;;;;0.10;0.10;;;19.40;99.90;;;20.06;67.58;101115.91;4931793;28;20228;-68
2022/08/07 07:32:14;;;;;;;0.10;0.10;;;17.80;99.90;;;20.05;66.68;101084.59;4916370;28;20225;-67
2022/08/07 07:34:47;;;;;;;0.10;0.10;;;19.80;99.90;;;20.02;66.52;101064.97;4921997;28;20236;-65
2022/08/07 07:37:16;;;;;;;0.20;0.20;;;;;;;20.14;66.65;101070.09;4950338;28;20213;-68
2022/08/07 07:40:14;;;;;;;0.75;0.75;;;20.20;99.90;;;20.47;66.83;101081.09;4934056;28;20216;-68
2022/08/07 07:42:44;;;;;;;0.50;0.50;;;20.00;99.90;;;20.32;65.98;101041.97;4964041;28;20213;-67
2022/08/07 07:45:25;;;;;;;0.40;0.40;;;20.10;99.90;;;20.51;65.55;101038.00;4945852;28;20241;-64
2022/08/07 07:48:19;;;;;;;0.70;0.70;;;20.40;99.90;;;20.76;66.17;101044.59;4956714;28;20712;-65
2022/08/07 07:51:06;;;;;;;0.40;0.40;;;20.50;99.90;;;20.64;65.75;101006.38;4918524;28;20209;-68
2022/08/07 07:53:43;;;;;;;0.57;0.57;;;20.60;99.90;;;20.78;66.33;101026.63;4945762;28;20208;-68
2022/08/07 07:56:22;;;;;;;6.10;2.57;;;20.80;99.90;;;21.02;64.64;101001.00;5227518;23;20220;-76
2022/08/07 07:59:00;;;;;;;0.00;0.00;;;20.80;99.90;;;21.06;66.25;101010.75;4973140;28;20224;-77
2022/08/07 08:01:32;;;;;;;0.30;0.30;;;20.90;99.90;;;21.18;66.89;101023.00;4992539;28;20208;-77
2022/08/07 08:04:21;;;;;;;0.30;0.30;;;;;;;21.37;66.29;101026.13;5000001;28;20216;-77
2022/08/07 08:06:54;;;;;;;0.20;0.20;;;21.20;99.90;;;21.55;65.75;101016.69;4988953;28;20256;-77
2022/08/07 08:09:25;;;;;;;0.25;0.20;;;21.30;99.90;;;21.29;65.35;100963.56;4979739;28;20205;-77
2022/08/07 08:11:57;;;;;;;7.28;2.45;;;21.10;99.90;;;21.32;65.93;100972.44;5015083;23;20683;-77
2022/08/07 08:14:34;;;;;;;0.05;0.05;;;21.30;99.90;;;21.78;66.24;101008.88;4980059;28;20211;-77
2022/08/07 08:17:08;;;;;;;0.10;0.10;;;21.40;99.90;;;21.65;65.32;100975.13;4983038;28;20229;-77
2022/08/07 08:20:03;;;;;;;0.20;0.20;;;21.60;99.90;;;21.83;65.29;100968.34;4989433;28;20209;-77
2022/08/07 08:28:43;;;;;;;0.25;0.25;;;22.30;99.90;;;22.27;65.88;100967.97;4983473;28;20217;-75
2022/08/07 08:31:34;;;;;;;0.30;0.30;;;22.00;99.90;;;22.36;65.87;100966.81;4987394;28;20719;-75
2022/08/07 08:34:34;;;;;;;0.77;0.75;;;22.40;99.90;;;22.78;65.97;100979.84;4999468;28;20208;-75
2022/08/07 08:37:03;;;;;;;0.80;0.60;;;;;;;22.40;65.57;100935.25;5002579;28;20225;-75
2022/08/07 08:39:37;;;;;;;0.40;0.40;;;22.30;99.90;;;22.58;66.87;100965.19;4987723;28;20219;-75
2022/08/07 08:42:48;;;;;;;0.30;0.30;;;22.40;99.90;;;22.63;66.02;100947.06;4999757;28;20209;-75
2022/08/07 08:45:41;;;;;;;0.30;0.30;;;23.20;99.90;;;22.69;65.12;100921.72;4984574;28;20212;-77
2022/08/07 08:49:03;;;;;;;0.45;0.45;;;23.20;99.90;;;23.56;65.81;100986.25;4975242;28;20662;-77
2022/08/07 08:51:44;;;;;;;0.55;0.50;;;23.50;99.90;;;23.50;66.64;100963.00;4990040;28;20873;-77
2022/08/07 08:54:47;;;;;;;0.57;0.57;;;24.20;99.90;;;24.25;65.28;100973.75;4984853;28;20216;-78
2022/08/07 08:57:36;;;;;;;0.45;0.45;;;24.70;99.90;;;23.89;65.35;100914.78;4989653;28;20235;-78
2022/08/07 09:00:09;;;;;;;0.52;0.52;;;24.10;99.90;;;23.64;66.39;100905.84;4989992;28;20208;-78
2022/08/07 09:02:55;;;;;;;0.17;0.17;;;24.20;99.90;;;24.18;65.33;100928.97;4987046;28;20200;-76
2022/08/07 09:05:45;;;;;;;0.22;0.22;;;24.10;99.90;;;23.99;64.74;100896.38;4989151;28;20203;-77
2022/08/07 09:08:32;;;;;;;0.40;0.40;;;24.40;99.90;;;24.12;64.85;100892.25;4987348;28;20594;-77
2022/08/07 09:11:18;;;;;;;0.70;0.50;;;24.60;99.90;;;24.44;64.34;100896.41;4989385;28;20205;-76
2022/08/07 09:14:42;;;;;;;1.23;1.13;;;24.60;99.90;;;23.64;64.33;100788.84;4976308;28;20222;-77
2022/08/07 09:17:45;;;;;;;0.90;0.60;;;24.40;99.90;;;24.22;64.79;100847.72;4989193;28;20610;-78
2022/08/07 09:21:05;;;;;;;0.68;0.57;;;24.40;99.90;;;23.88;63.73;100799.56;4988818;28;20208;-77
2022/08/07 09:23:46;;;;;;;0.50;0.50;;;;;;;24.43;64.03;100848.69;4975502;28;20587;-78
2022/08/07 09:26:52;;;;;;;0.65;0.38;;;25.10;99.90;;;24.63;63.13;100809.97;4994818;28;20219;-78
2022/08/07 09:29:45;;;;;;;0.65;0.50;;;23.00;99.90;;;24.67;63.21;100814.31;4983845;28;20218;-78
2022/08/07 09:33:05;;;;;;;0.38;0.32;;;25.20;99.90;;;24.75;63.19;100808.59;4984276;28;20207;-78
2022/08/07 09:36:38;;;;;;;0.85;0.60;;;25.80;99.90;;;25.50;62.12;100809.72;4990993;28;20243;-78
2022/08/07 09:39:50;;;;;;;0.77;0.57;;;26.20;99.90;;;24.79;61.13;100685.81;5001665;28;20216;-78
2022/08/07 09:43:03;;;;;;;0.35;0.30;;;24.40;99.90;;;24.65;62.52;100682.81;4988827;28;20340;-77
2022/08/07 09:46:05;;;;;;;2.55;1.15;;;25.40;99.90;;;25.65;62.59;100777.44;4983418;28;20589;-78
2022/08/07 09:49:29;;;;;;;0.20;0.20;;;26.00;99.90;;;25.38;60.94;100698.38;4984396;28;20215;-78
2022/08/07 09:52:39;;;;;;;1.88;0.88;;;26.20;99.90;;;25.29;60.62;100669.06;4985471;28;20215;-78
2022/08/07 09:55:29;;;;;;;1.00;0.70;;;26.00;99.90;;;25.62;61.08;100685.50;4987181;28;20204;-77
2022/08/07 09:59:13;;;;;;;0.40;0.38;;;26.60;99.90;;;26.14;61.07;100721.75;4993098;28;20247;-77
2022/08/07 10:02:21;;;;;;;0.32;0.32;;;26.80;99.90;;;25.84;60.15;100645.56;4994445;28;20212;-79
2022/08/07 10:05:55;;;;;;;0.98;0.63;;;26.70;99.90;;;26.04;60.40;100658.13;4994836;28;20208;-77
2022/08/07 10:08:50;;;;;;;2.55;1.17;;;25.90;99.90;;;26.05;61.00;100640.91;4984763;28;20219;-78
2022/08/07 10:11:54;;;;;;;0.40;0.30;;;26.00;99.90;;;25.78;60.53;100589.00;4989538;28;20208;-78
2022/08/07 10:15:30;;;;;;;2.25;1.27;;;26.50;99.90;;;26.45;59.55;100634.31;4990473;28;20215;-79
2022/08/07 10:18:40;;;;;;;1.80;0.82;;;27.00;99.90;;;26.53;57.85;100563.38;4992744;28;20230;-78
2022/08/07 10:21:42;;;;;;;2.05;1.02;;;26.20;99.50;;;25.50;59.38;100451.38;4993014;28;20228;-78
2022/08/07 10:25:00;;;;;;;4.38;1.75;;;26.50;99.90;;;26.53;59.58;100561.53;4989096;28;20200;-79
2022/08/07 10:28:04;;;;;;;1.73;0.82;;;26.70;99.50;;;26.40;58.07;100507.09;5000518;28;20235;-79
2022/08/07 10:31:03;;;;;;;2.30;1.02;;;27.10;98.60;;;26.58;58.31;100515.19;4997793;28;20216;-79
2022/08/07 10:33:57;;;;;;;2.20;1.00;;;26.90;98.50;;;26.49;58.23;100483.13;4989904;28;20222;-80
2022/08/07 10:36:47;;;;;;;1.17;0.70;;;;;;;27.42;57.89;100561.00;4984052;28;20231;-79
2022/08/07 10:39:27;;;;;;;2.55;1.25;;;;;;;26.43;56.65;100408.44;4988217;28;20230;-82
2022/08/07 10:42:23;;;;;;;4.40;1.42;;;27.20;98.20;;;27.10;57.77;100488.69;4985981;28;20216;-79
2022/08/07 10:45:15;;;;;;;1.67;0.55;;;;;;;27.57;57.21;100512.16;4983925;28;20199;-79
2022/08/07 10:48:26;;;;;;;3.70;1.10;;;28.00;97.10;;;27.80;57.46;100519.84;4991022;28;20219;-79
2022/08/07 10:51:25;;;;;;;2.25;1.02;;;28.20;99.90;;;28.14;55.58;100488.72;4985557;28;20243;-79
2022/08/07 10:54:49;;;;;;;2.55;1.15;;;28.70;94.00;;;27.32;55.72;100356.13;4977893;28;20227;-79
2022/08/07 10:57:29;;;;;;;1.40;0.47;;;;;;;26.95;57.41;100337.56;4961771;28;20239;-79
2022/08/07 11:00:08;;;;;;;2.45;0.90;;;27.80;95.90;;;27.50;55.91;100380.41;4994863;28;20577;-77
2022/08/07 11:03:22;;;;;;;1.05;0.52;;;27.20;95.60;;;27.15;58.42;100352.66;4988625;28;20215;-78
2022/08/07 11:06:24;;;;;;;1.08;0.60;;;27.90;97.20;;;27.77;55.85;100397.72;4988182;28;20192;-78
2022/08/07 11:09:12;;;;;;;0.82;0.60;;;27.70;99.60;;;27.91;56.50;100396.84;4971254;28;20204;-79
2022/08/07 11:12:25;;;;;;;0.98;0.60;;;27.90;95.70;;;27.93;56.72;100389.47;5002991;28;20212;-78
2022/08/07 11:15:05;;;;;;;1.80;0.95;;;28.70;95.40;;;28.42;55.69;100402.66;4987368;28;20224;-78
2022/08/07 11:18:25;;;;;;;1.77;0.88;;;29.10;95.10;;;28.92;56.07;100438.34;4989990;28;20243;-78
2022/08/07 11:21:05;;;;;;;2.78;1.08;;;30.50;99.90;;;28.91;54.26;100379.44;4993616;28;20211;-79
2022/08/07 11:24:03;;;;;;;1.42;0.73;;;29.40;91.70;;;28.17;54.60;100259.25;4987675;28;20216;-78
2022/08/07 11:26:54;;;;;;;1.83;0.90;;;28.90;92.90;;;27.77;54.24;100193.94;4969664;28;20206;-78
2022/08/07 11:29:44;;;;;;;1.90;0.95;;;28.60;92.90;;;28.17;53.94;100235.66;4993925;28;20214;-79
2022/08/07 11:32:44;;;;;;;2.60;1.20;;;28.20;91.60;;;27.59;54.16;100148.94;4986047;28;20211;-77
2022/08/07 11:35:22;;;;;;;3.28;1.30;;;27.90;92.70;;;27.95;55.40;100208.16;4988062;28;20215;-79
2022/08/07 11:38:48;;;;;;;1.17;0.68;;;28.90;92.20;;;27.78;53.47;100140.47;4999224;28;20699;-79
2022/08/07 11:41:23;;;;;;;0.73;0.43;;;29.00;94.30;;;29.15;55.98;100329.72;4974431;28;20208;-78
2022/08/07 11:44:54;;;;;;;1.35;0.75;;;29.40;91.80;;;28.82;53.29;100229.44;5001073;28;20204;-78
2022/08/07 11:47:55;;;;;;;0.82;0.52;;;29.80;91.50;;;29.12;53.55;100249.09;5007127;28;20223;-78
2022/08/07 11:50:42;;;;;;;0.77;0.52;;;30.20;99.00;;;28.95;53.15;100186.81;4993514;28;20208;-79
2022/08/07 11:53:34;;;;;;;0.85;0.40;;;30.00;89.80;;;29.35;52.75;100227.53;4988758;28;20209;-78
2022/08/07 11:56:35;;;;;;;1.00;0.60;;;30.10;87.80;;;29.52;53.25;100236.25;4992279;28;20212;-80